Time;durP1;ratioP1;P1;durP2;ratioP2;P2;SDS_P1;SDS_P2;PMS_P1;PMS_P2;Temp;Humidity;BMP_temperature;BMP_pressure;BME280_temperature;BME280_humidity;BME280_pressure;Samples;Min_cycle;Max_cycle;Signal;HPM_P1;HPM_P2
2023/06/29 00:00:00;;;;;;;4.70;4.30;;;19.10;99.90;;;;;;4998009;28;20478;-57
2023/06/29 00:02:29;;;;;;;5.20;4.70;;;19.10;99.90;;;;;;4992705;28;20542;-57
2023/06/29 00:04:57;;;;;;;4.50;4.10;;;19.10;99.90;;;;;;4998852;28;20500;-57
2023/06/29 00:07:25;;;;;;;4.43;4.03;;;19.10;99.90;;;;;;4997654;28;20974;-57
2023/06/29 00:09:57;;;;;;;5.43;5.03;;;19.10;99.90;;;;;;4994763;28;20472;-56
2023/06/29 00:12:26;;;;;;;4.50;4.20;;;19.10;99.90;;;;;;4994561;28;20523;-57
2023/06/29 00:14:54;;;;;;;5.77;5.20;;;19.10;99.90;;;;;;4992704;28;20481;-57
2023/06/29 00:17:23;;;;;;;5.77;5.33;;;19.10;99.90;;;;;;4996999;28;20872;-57
2023/06/29 00:19:51;;;;;;;5.87;5.37;;;19.10;99.90;;;;;;5000125;28;20675;-57
2023/06/29 00:22:19;;;;;;;6.23;5.73;;;19.10;99.90;;;;;;4998478;28;20493;-57
2023/06/29 00:24:55;;;;;;;6.10;5.43;;;19.10;99.90;;;;;;4994783;28;20496;-57
2023/06/29 00:27:24;;;;;;;6.57;6.07;;;19.10;99.90;;;;;;4995888;28;20547;-57
2023/06/29 00:29:53;;;;;;;7.70;7.00;;;19.10;99.90;;;;;;4998977;28;20479;-57
2023/06/29 00:32:21;;;;;;;7.90;7.17;;;19.10;99.90;;;;;;4994951;28;20491;-57
2023/06/29 00:34:49;;;;;;;7.33;6.73;;;19.10;99.90;;;;;;4995125;28;20487;-57
2023/06/29 00:37:17;;;;;;;7.53;6.93;;;19.10;99.90;;;;;;4994064;28;21156;-57
2023/06/29 00:39:45;;;;;;;7.50;7.00;;;19.10;99.90;;;;;;4995668;28;20535;-59
2023/06/29 00:42:13;;;;;;;7.30;6.60;;;19.10;99.90;;;;;;4996515;28;20554;-57
2023/06/29 00:44:41;;;;;;;7.27;6.67;;;19.10;99.90;;;;;;4997363;28;20502;-57
2023/06/29 00:47:11;;;;;;;7.40;6.80;;;19.10;99.90;;;;;;4997350;28;20961;-57
2023/06/29 00:49:39;;;;;;;7.80;7.17;;;19.00;99.90;;;;;;5000646;28;20555;-59
2023/06/29 00:52:08;;;;;;;8.37;7.60;;;19.00;99.90;;;;;;4997022;28;20481;-56
2023/06/29 00:54:36;;;;;;;8.93;8.03;;;19.00;99.90;;;;;;4997935;28;20567;-56
2023/06/29 00:57:04;;;;;;;8.80;8.00;;;19.00;99.90;;;;;;4998862;28;20467;-56
2023/06/29 00:59:32;;;;;;;8.30;7.60;;;19.00;99.90;;;;;;4998098;28;21062;-57
2023/06/29 01:02:00;;;;;;;8.00;7.40;;;19.00;99.90;;;;;;4990986;28;20567;-57
2023/06/29 01:04:32;;;;;;;8.93;8.20;;;19.00;99.90;;;;;;4996211;28;20580;-57
2023/06/29 01:07:07;;;;;;;9.50;8.67;;;19.00;99.90;;;;;;4996379;28;20560;-57
2023/06/29 01:09:36;;;;;;;9.03;8.33;;;19.00;99.90;;;;;;4992517;28;20553;-57
2023/06/29 01:12:06;;;;;;;10.93;9.87;;;19.00;99.90;;;;;;4994251;28;20504;-57
2023/06/29 01:14:35;;;;;;;10.23;9.50;;;19.00;99.90;;;;;;4996749;28;20492;-56
2023/06/29 01:17:04;;;;;;;10.33;9.53;;;19.00;99.90;;;;;;4996119;28;21008;-57
2023/06/29 01:19:35;;;;;;;10.60;9.70;;;19.00;99.90;;;;;;4994560;28;20913;-57
2023/06/29 01:22:05;;;;;;;11.93;10.90;;;19.00;99.90;;;;;;4995592;28;20503;-57
2023/06/29 01:24:39;;;;;;;11.07;10.27;;;19.00;99.90;;;;;;4999253;28;20533;-56
2023/06/29 01:27:08;;;;;;;12.47;11.57;;;19.00;99.90;;;;;;4993739;28;20568;-56
2023/06/29 01:29:36;;;;;;;11.10;10.20;;;19.00;99.90;;;;;;4990444;28;20549;-56
2023/06/29 01:32:07;;;;;;;12.30;11.40;;;19.00;99.90;;;;;;4993610;28;21014;-56
2023/06/29 01:34:37;;;;;;;12.80;11.80;;;19.00;99.90;;;;;;4991425;28;20553;-56
2023/06/29 01:37:10;;;;;;;14.10;13.00;;;18.90;99.90;;;;;;4995333;28;20928;-56
2023/06/29 01:39:45;;;;;;;15.63;14.43;;;18.90;99.90;;;;;;4997227;28;20481;-57
2023/06/29 01:42:14;;;;;;;14.10;12.93;;;18.90;99.90;;;;;;4992339;28;20580;-56
2023/06/29 01:44:43;;;;;;;15.87;14.57;;;19.00;99.90;;;;;;4994475;28;20674;-57
2023/06/29 01:47:12;;;;;;;15.63;14.33;;;19.00;99.90;;;;;;4991909;28;20603;-56
2023/06/29 01:49:40;;;;;;;15.63;14.43;;;18.90;99.90;;;;;;4993469;28;20473;-56
2023/06/29 01:52:09;;;;;;;15.60;14.27;;;18.90;99.90;;;;;;4996113;28;20568;-56
2023/06/29 01:54:38;;;;;;;16.53;15.13;;;18.90;99.90;;;;;;4993199;28;21005;-56
2023/06/29 01:57:07;;;;;;;17.17;15.80;;;18.90;99.90;;;;;;4995334;28;20934;-56
2023/06/29 01:59:37;;;;;;;17.57;16.07;;;18.90;99.90;;;;;;4995239;28;20507;-56
2023/06/29 02:02:05;;;;;;;16.60;15.17;;;18.90;99.90;;;;;;4992289;28;20941;-56
2023/06/29 02:04:33;;;;;;;17.50;16.00;;;18.90;99.90;;;;;;4997632;28;20850;-56
2023/06/29 02:07:01;;;;;;;16.97;15.47;;;18.90;99.90;;;;;;4994982;28;20477;-56
2023/06/29 02:09:30;;;;;;;17.57;15.90;;;18.90;99.90;;;;;;4997272;28;20484;-56
2023/06/29 02:11:59;;;;;;;17.20;15.70;;;18.90;99.90;;;;;;4990311;28;21036;-56
2023/06/29 02:14:28;;;;;;;15.97;14.57;;;18.90;99.90;;;;;;4993538;28;20473;-57
2023/06/29 02:16:56;;;;;;;15.13;13.93;;;18.90;99.90;;;;;;4996411;28;20476;-56
2023/06/29 02:19:24;;;;;;;16.57;15.17;;;18.90;99.90;;;;;;4996568;28;20837;-56
2023/06/29 02:21:52;;;;;;;16.83;15.40;;;18.90;99.90;;;;;;4993482;28;20533;-56
2023/06/29 02:24:20;;;;;;;19.87;18.07;;;18.90;99.90;;;;;;4993261;28;20592;-56
2023/06/29 02:26:48;;;;;;;18.90;17.10;;;18.90;99.90;;;;;;4991088;28;21061;-56
2023/06/29 02:29:17;;;;;;;19.90;18.20;;;18.90;99.90;;;;;;4993373;28;20556;-56
2023/06/29 02:31:45;;;;;;;20.83;19.07;;;18.90;99.90;;;;;;4989132;28;20938;-56
2023/06/29 02:34:13;;;;;;;20.50;18.60;;;18.90;99.90;;;;;;4992844;28;20479;-56
2023/06/29 02:36:42;;;;;;;21.67;19.87;;;18.90;99.90;;;;;;4994953;28;20992;-57
2023/06/29 02:39:10;;;;;;;19.60;17.90;;;18.90;99.90;;;;;;4997585;28;20472;-56
2023/06/29 02:41:38;;;;;;;20.33;18.50;;;18.90;99.90;;;;;;4992143;28;20500;-56
2023/06/29 02:44:06;;;;;;;19.93;18.33;;;18.80;99.90;;;;;;4995615;28;20488;-57
2023/06/29 02:46:35;;;;;;;19.40;17.80;;;18.80;99.90;;;;;;4995119;28;20531;-56
2023/06/29 02:49:03;;;;;;;22.00;19.97;;;18.80;99.90;;;;;;4997498;28;20476;-57
2023/06/29 02:51:31;;;;;;;18.80;17.30;;;18.80;99.90;;;;;;4994023;28;20533;-57
2023/06/29 02:53:59;;;;;;;19.93;18.33;;;18.80;99.90;;;;;;4992807;28;20488;-57
2023/06/29 02:56:27;;;;;;;22.90;20.80;;;18.80;99.90;;;;;;4997475;28;21079;-56
2023/06/29 02:58:55;;;;;;;23.30;21.20;;;18.80;99.90;;;;;;4998191;28;20560;-56
2023/06/29 03:01:23;;;;;;;22.70;20.73;;;18.80;99.90;;;;;;4991542;28;20492;-56
2023/06/29 03:03:52;;;;;;;23.97;22.00;;;18.80;99.90;;;;;;4992674;28;20574;-55
2023/06/29 03:06:21;;;;;;;22.80;20.80;;;18.80;99.90;;;;;;4994326;28;20973;-56
2023/06/29 03:08:49;;;;;;;23.30;21.20;;;18.80;99.90;;;;;;4993919;28;21031;-56
2023/06/29 03:11:17;;;;;;;21.93;20.13;;;18.80;99.90;;;;;;4991586;28;20499;-57
2023/06/29 03:13:45;;;;;;;26.40;24.10;;;18.80;99.90;;;;;;4995948;28;20511;-56
2023/06/29 03:16:13;;;;;;;24.70;22.57;;;18.80;99.90;;;;;;4996329;28;20464;-57
2023/06/29 03:18:41;;;;;;;23.83;21.73;;;18.80;99.90;;;;;;4992403;28;20508;-57
2023/06/29 03:21:11;;;;;;;23.73;21.53;;;18.80;99.90;;;;;;4994275;28;21025;-57
2023/06/29 03:23:45;;;;;;;24.37;22.07;;;18.80;99.90;;;;;;4993741;28;21038;-57
2023/06/29 03:26:13;;;;;;;26.37;23.87;;;18.80;99.90;;;;;;4992660;28;20554;-56
2023/06/29 03:28:41;;;;;;;23.53;21.53;;;18.70;99.90;;;;;;4994499;28;20476;-57
2023/06/29 03:31:09;;;;;;;27.13;24.70;;;18.70;99.90;;;;;;4997365;28;20492;-56
2023/06/29 03:33:37;;;;;;;27.30;24.90;;;18.70;99.90;;;;;;4994576;28;20487;-56
2023/06/29 03:36:09;;;;;;;28.70;26.00;;;18.70;99.90;;;;;;4993981;28;20470;-57
2023/06/29 03:38:38;;;;;;;28.80;26.20;;;18.70;99.90;;;;;;4992333;28;20496;-57
2023/06/29 03:41:06;;;;;;;27.87;25.37;;;18.70;99.90;;;;;;4995408;28;20558;-57
2023/06/29 03:43:34;;;;;;;27.23;24.83;;;18.70;99.90;;;;;;4994190;28;20933;-58
2023/06/29 03:46:02;;;;;;;25.77;23.37;;;18.70;99.90;;;;;;4999955;28;21106;-57
2023/06/29 03:48:30;;;;;;;29.70;26.87;;;18.70;99.90;;;;;;4997452;28;20483;-58
2023/06/29 03:50:58;;;;;;;28.10;25.57;;;18.70;99.90;;;;;;4996425;28;20468;-57
2023/06/29 03:53:27;;;;;;;25.70;23.40;;;18.70;99.90;;;;;;4994972;28;20492;-58
2023/06/29 03:55:56;;;;;;;25.60;23.40;;;18.70;99.90;;;;;;5001399;28;20471;-57
2023/06/29 03:58:24;;;;;;;26.03;23.80;;;18.70;99.90;;;;;;4997470;28;20826;-57
2023/06/29 04:00:52;;;;;;;24.77;22.57;;;18.70;99.90;;;;;;4995644;28;20475;-57
2023/06/29 04:03:20;;;;;;;27.50;25.00;;;18.70;99.90;;;;;;4996293;28;20526;-57
2023/06/29 04:05:48;;;;;;;27.53;25.03;;;18.80;99.90;;;;;;4998187;28;20945;-58
2023/06/29 04:08:16;;;;;;;26.70;24.20;;;18.80;99.90;;;;;;4997542;28;20561;-58
2023/06/29 04:10:44;;;;;;;26.37;24.00;;;18.80;99.90;;;;;;4994629;28;20559;-57
2023/06/29 04:13:13;;;;;;;25.33;23.13;;;18.80;99.90;;;;;;4998150;28;20522;-58
2023/06/29 04:15:42;;;;;;;27.67;25.17;;;18.80;99.90;;;;;;4994707;28;20469;-58
2023/06/29 04:18:10;;;;;;;28.30;25.60;;;18.80;99.90;;;;;;4998874;28;20472;-58
2023/06/29 04:20:38;;;;;;;27.57;25.00;;;18.80;99.90;;;;;;4996281;28;20511;-57
2023/06/29 04:23:06;;;;;;;27.27;24.77;;;18.80;99.90;;;;;;4995652;28;20586;-57
2023/06/29 04:25:34;;;;;;;25.50;23.20;;;18.80;99.90;;;;;;4992352;28;20537;-57
2023/06/29 04:28:02;;;;;;;27.50;24.90;;;18.80;99.90;;;;;;4998546;28;20530;-57
2023/06/29 04:30:31;;;;;;;26.53;24.03;;;18.90;99.90;;;;;;4982779;28;20607;-58
2023/06/29 04:33:09;;;;;;;26.27;23.67;;;18.90;99.90;;;;;;4992333;28;20528;-58
2023/06/29 04:35:39;;;;;;;24.90;22.60;;;18.90;99.90;;;;;;4995453;28;20839;-57
2023/06/29 04:38:09;;;;;;;27.03;24.43;;;18.90;99.90;;;;;;4993414;28;20468;-57
2023/06/29 04:40:37;;;;;;;26.70;24.20;;;18.90;99.90;;;;;;4993805;28;20503;-58
2023/06/29 04:43:06;;;;;;;27.43;24.73;;;18.90;99.90;;;;;;4995975;28;20495;-58
2023/06/29 04:45:35;;;;;;;27.67;25.27;;;18.90;99.90;;;;;;4996733;28;20480;-57
2023/06/29 04:48:04;;;;;;;26.57;24.10;;;18.90;99.90;;;;;;4997822;28;20591;-57
2023/06/29 04:50:35;;;;;;;26.87;24.40;;;18.90;99.90;;;;;;4994618;28;20477;-58
2023/06/29 04:53:09;;;;;;;25.80;23.50;;;18.90;99.90;;;;;;4988233;28;20577;-60
2023/06/29 04:55:37;;;;;;;25.80;23.37;;;18.90;99.90;;;;;;4995581;28;20476;-58
2023/06/29 04:58:05;;;;;;;23.80;21.60;;;19.00;99.90;;;;;;5000063;28;20560;-58
2023/06/29 05:00:35;;;;;;;25.10;22.80;;;19.00;99.90;;;;;;4996331;28;20766;-58
2023/06/29 05:03:03;;;;;;;25.33;22.70;;;19.00;99.90;;;;;;4998171;28;20502;-59
2023/06/29 05:05:31;;;;;;;23.47;21.40;;;19.00;99.90;;;;;;4994389;28;20468;-58
2023/06/29 05:07:59;;;;;;;23.87;21.67;;;19.10;99.90;;;;;;4997623;28;20493;-58
2023/06/29 05:10:27;;;;;;;24.37;22.17;;;19.10;99.90;;;;;;5000453;28;20851;-59
2023/06/29 05:12:55;;;;;;;25.70;23.10;;;19.10;99.90;;;;;;4997535;28;20940;-58
2023/06/29 05:15:23;;;;;;;24.90;22.70;;;19.20;99.90;;;;;;4997293;28;20551;-58
2023/06/29 05:17:53;;;;;;;26.73;24.33;;;19.20;99.90;;;;;;4985594;28;20472;-58
2023/06/29 05:20:22;;;;;;;25.90;23.60;;;19.20;99.90;;;;;;4990018;28;20472;-58
2023/06/29 05:22:50;;;;;;;24.90;22.50;;;19.20;99.90;;;;;;4981333;28;20496;-58
2023/06/29 05:25:18;;;;;;;25.53;23.13;;;19.20;99.90;;;;;;4990346;28;20471;-59
2023/06/29 05:27:46;;;;;;;25.10;22.77;;;19.20;99.90;;;;;;4995480;28;20940;-59
2023/06/29 05:30:16;;;;;;;25.23;22.63;;;19.30;99.90;;;;;;4979523;28;20556;-58
2023/06/29 05:32:44;;;;;;;24.07;21.97;;;19.30;99.90;;;;;;4989190;28;20496;-59
2023/06/29 05:35:13;;;;;;;23.33;21.13;;;19.30;99.90;;;;;;4992851;28;20464;-59
2023/06/29 05:37:42;;;;;;;22.90;20.77;;;19.30;99.90;;;;;;4990540;28;20551;-57
2023/06/29 05:40:11;;;;;;;22.20;20.00;;;19.30;99.90;;;;;;4992856;28;20516;-58
2023/06/29 05:42:39;;;;;;;21.57;19.53;;;19.40;99.90;;;;;;4993130;28;20547;-58
2023/06/29 05:45:07;;;;;;;23.27;20.93;;;19.40;99.90;;;;;;4992559;28;20600;-57
2023/06/29 05:47:35;;;;;;;23.10;21.10;;;19.50;99.90;;;;;;4998567;28;20521;-58
2023/06/29 05:50:04;;;;;;;22.47;20.17;;;19.50;99.90;;;;;;4996586;28;21146;-58
2023/06/29 05:52:34;;;;;;;23.90;21.60;;;19.40;99.90;;;;;;4996177;28;20512;-57
2023/06/29 05:55:03;;;;;;;23.03;20.90;;;19.50;99.90;;;;;;4999087;28;20472;-57
2023/06/29 05:57:31;;;;;;;22.50;20.30;;;19.50;99.90;;;;;;4984694;28;20471;-58
2023/06/29 06:00:00;;;;;;;22.67;20.27;;;19.50;99.90;;;;;;4998173;28;20464;-56
2023/06/29 06:02:28;;;;;;;21.10;19.10;;;19.60;99.90;;;;;;4989119;28;20496;-58
2023/06/29 06:04:56;;;;;;;20.73;18.67;;;19.60;99.90;;;;;;4993662;28;21423;-57
2023/06/29 06:07:28;;;;;;;23.30;21.10;;;19.60;99.90;;;;;;4993420;28;20618;-58
2023/06/29 06:09:58;;;;;;;22.10;19.80;;;19.70;99.90;;;;;;4990793;28;20489;-57
2023/06/29 06:12:27;;;;;;;22.60;20.17;;;19.60;99.90;;;;;;4987061;28;20499;-57
2023/06/29 06:14:55;;;;;;;20.07;17.97;;;19.60;99.90;;;;;;4994050;28;20495;-56
2023/06/29 06:17:23;;;;;;;22.40;19.93;;;19.60;99.90;;;;;;4996093;28;21030;-57
2023/06/29 06:19:51;;;;;;;19.13;17.33;;;19.60;99.90;;;;;;4994452;28;21013;-56
2023/06/29 06:22:19;;;;;;;18.07;16.33;;;19.60;99.90;;;;;;4993018;28;20544;-57
2023/06/29 06:24:47;;;;;;;21.77;19.03;;;19.60;99.90;;;;;;4996758;28;20915;-57
2023/06/29 06:27:16;;;;;;;21.60;19.40;;;19.70;99.90;;;;;;4995482;28;20916;-55
2023/06/29 06:29:44;;;;;;;20.10;18.00;;;19.70;99.90;;;;;;4998057;28;20779;-57
2023/06/29 06:32:12;;;;;;;20.17;18.37;;;19.80;99.90;;;;;;4993752;28;20934;-57
2023/06/29 06:34:40;;;;;;;21.37;19.00;;;19.80;99.90;;;;;;4998079;28;20949;-57
2023/06/29 06:37:08;;;;;;;21.50;19.30;;;19.80;99.90;;;;;;4997575;28;20492;-57
2023/06/29 06:39:36;;;;;;;22.20;19.17;;;19.80;99.90;;;;;;4993577;28;20665;-57
2023/06/29 06:42:05;;;;;;;20.93;18.80;;;19.80;99.90;;;;;;4991900;28;20503;-57
2023/06/29 06:44:36;;;;;;;22.57;20.27;;;19.80;99.90;;;;;;4994186;28;20467;-57
2023/06/29 06:47:05;;;;;;;20.17;18.10;;;19.80;99.90;;;;;;4993153;28;20478;-57
2023/06/29 06:49:33;;;;;;;19.90;17.93;;;19.80;99.90;;;;;;4992355;28;20483;-57
2023/06/29 06:52:02;;;;;;;21.30;19.10;;;19.80;99.90;;;;;;4991204;28;20537;-57
2023/06/29 06:54:30;;;;;;;21.37;19.17;;;19.90;99.90;;;;;;4994328;28;20479;-56
2023/06/29 06:56:58;;;;;;;21.17;18.40;;;19.90;99.90;;;;;;4991826;28;20483;-57
2023/06/29 06:59:26;;;;;;;20.47;18.37;;;20.00;99.90;;;;;;4991733;28;20476;-56
2023/06/29 07:01:55;;;;;;;21.83;19.43;;;20.10;99.90;;;;;;4990084;28;20554;-56
2023/06/29 07:04:23;;;;;;;20.30;18.30;;;20.10;99.90;;;;;;4980517;28;20476;-56
2023/06/29 07:06:51;;;;;;;19.53;17.63;;;20.20;99.90;;;;;;4990028;28;20592;-56
2023/06/29 07:09:19;;;;;;;22.90;20.50;;;20.20;99.90;;;;;;4983083;28;20578;-57
2023/06/29 07:11:48;;;;;;;21.57;17.10;;;20.30;99.90;;;;;;4987427;28;20563;-57
2023/06/29 07:14:16;;;;;;;20.10;18.10;;;20.30;99.90;;;;;;4993402;28;20472;-56
2023/06/29 07:16:47;;;;;;;22.43;20.10;;;20.40;99.90;;;;;;4999606;28;20853;-57
2023/06/29 07:19:17;;;;;;;19.57;17.53;;;20.40;99.90;;;;;;4995303;28;21012;-57
2023/06/29 07:21:48;;;;;;;21.17;18.70;;;20.50;99.90;;;;;;4996050;28;20483;-57
2023/06/29 07:24:21;;;;;;;19.93;17.83;;;20.60;99.90;;;;;;4976030;28;20501;-57
2023/06/29 07:26:50;;;;;;;20.67;18.50;;;20.60;99.90;;;;;;4974113;28;20931;-57
2023/06/29 07:29:18;;;;;;;19.93;17.97;;;20.80;99.90;;;;;;4969546;28;20493;-57
2023/06/29 07:31:46;;;;;;;18.73;16.77;;;21.00;99.90;;;;;;4973121;28;20488;-57
2023/06/29 07:34:15;;;;;;;21.60;19.20;;;21.10;99.90;;;;;;4972190;28;20510;-56
2023/06/29 07:36:44;;;;;;;21.03;18.87;;;21.20;99.90;;;;;;4979771;28;20816;-56
2023/06/29 07:39:12;;;;;;;23.33;19.80;;;21.20;99.90;;;;;;4975761;28;20492;-57
2023/06/29 07:41:40;;;;;;;22.10;19.80;;;21.20;99.90;;;;;;4973499;28;20567;-55
2023/06/29 07:44:08;;;;;;;21.47;19.13;;;21.10;99.90;;;;;;4994082;28;20486;-57
2023/06/29 07:46:36;;;;;;;21.50;19.33;;;21.10;99.90;;;;;;4997620;28;20473;-56
2023/06/29 07:49:04;;;;;;;26.50;20.40;;;21.00;99.90;;;;;;4994888;28;20587;-56
2023/06/29 07:51:33;;;;;;;20.73;18.57;;;21.10;99.90;;;;;;4996849;28;20534;-56
2023/06/29 07:54:04;;;;;;;23.90;19.43;;;21.10;99.90;;;;;;4998454;28;21077;-56
2023/06/29 07:56:32;;;;;;;19.70;17.60;;;21.20;99.90;;;;;;4998837;28;20472;-56
2023/06/29 07:59:03;;;;;;;21.43;19.13;;;21.40;99.90;;;;;;4997697;28;20494;-56
2023/06/29 08:01:31;;;;;;;21.30;18.20;;;21.50;99.90;;;;;;4996284;28;20508;-57
2023/06/29 08:03:59;;;;;;;19.97;17.90;;;21.60;99.90;;;;;;4995047;28;20533;-57
2023/06/29 08:06:31;;;;;;;19.80;17.90;;;21.60;99.90;;;;;;4996633;28;20563;-57
2023/06/29 08:09:04;;;;;;;19.00;17.10;;;21.70;99.90;;;;;;4999678;28;21075;-57
2023/06/29 08:11:32;;;;;;;20.60;18.40;;;21.80;99.90;;;;;;4996704;28;20500;-58
2023/06/29 08:14:00;;;;;;;21.63;19.53;;;21.80;99.90;;;;;;4995435;28;20822;-59
2023/06/29 08:16:28;;;;;;;20.27;17.60;;;21.90;99.90;;;;;;4996463;28;20507;-57
2023/06/29 08:18:56;;;;;;;19.97;17.97;;;22.00;99.90;;;;;;4998926;28;20464;-56
2023/06/29 08:21:24;;;;;;;19.50;17.47;;;22.10;99.90;;;;;;4995732;28;20493;-57
2023/06/29 08:23:52;;;;;;;19.20;17.20;;;22.20;99.90;;;;;;4996753;28;20495;-56
2023/06/29 08:26:22;;;;;;;22.47;18.00;;;22.30;99.90;;;;;;4996840;28;20523;-57
2023/06/29 08:28:50;;;;;;;20.23;18.13;;;22.30;99.90;;;;;;4993011;28;20493;-57
2023/06/29 08:31:19;;;;;;;20.30;17.93;;;22.40;99.90;;;;;;4993766;28;22033;-57
2023/06/29 08:33:48;;;;;;;21.40;19.00;;;22.40;99.90;;;;;;4996191;28;20484;-57
2023/06/29 08:36:17;;;;;;;20.10;16.40;;;22.50;99.90;;;;;;4997926;28;20500;-57
2023/06/29 08:38:48;;;;;;;22.63;20.47;;;22.60;99.90;;;;;;5001016;28;20460;-57
2023/06/29 08:41:16;;;;;;;20.20;17.93;;;22.70;99.90;;;;;;4996049;28;20496;-56
2023/06/29 08:43:46;;;;;;;19.37;17.37;;;22.70;99.90;;;;;;4998080;28;20579;-56
2023/06/29 08:46:14;;;;;;;22.73;20.47;;;22.70;99.90;;;;;;4995567;28;20567;-56
2023/06/29 08:48:45;;;;;;;20.80;18.70;;;22.80;99.90;;;;;;4996906;28;20497;-56
2023/06/29 08:51:16;;;;;;;20.50;17.67;;;22.80;99.90;;;;;;4992693;28;20503;-56
2023/06/29 08:53:44;;;;;;;21.33;19.07;;;22.80;99.90;;;;;;4995656;28;20592;-55
2023/06/29 08:56:13;;;;;;;19.77;16.97;;;22.90;99.90;;;;;;4997714;28;20506;-56
2023/06/29 08:58:41;;;;;;;19.93;17.83;;;22.90;99.90;;;;;;4997659;28;20968;-56
2023/06/29 09:01:12;;;;;;;20.07;17.97;;;23.00;99.90;;;;;;4996193;28;20499;-56
2023/06/29 09:03:41;;;;;;;25.60;21.03;;;23.00;99.90;;;;;;4995907;28;20516;-57
2023/06/29 09:06:09;;;;;;;19.57;17.60;;;22.90;99.90;;;;;;4990064;28;20466;-57
2023/06/29 09:08:39;;;;;;;20.77;18.57;;;22.90;99.90;;;;;;4996391;28;20499;-57
2023/06/29 09:11:08;;;;;;;20.33;18.23;;;22.90;99.90;;;;;;4995338;28;21987;-57
2023/06/29 09:13:36;;;;;;;20.27;18.20;;;22.90;99.90;;;;;;4995640;28;20499;-57
2023/06/29 09:16:05;;;;;;;20.70;18.47;;;23.00;99.90;;;;;;4996514;28;20501;-57
2023/06/29 09:18:35;;;;;;;19.50;17.40;;;23.10;99.90;;;;;;4995620;28;20527;-56
2023/06/29 09:21:05;;;;;;;18.80;16.80;;;23.20;99.90;;;;;;4995062;28;20990;-57
2023/06/29 09:23:33;;;;;;;20.07;18.03;;;23.30;99.90;;;;;;4994964;28;20569;-57
2023/06/29 09:26:05;;;;;;;21.53;17.13;;;23.40;99.90;;;;;;4993597;28;21059;-57
2023/06/29 09:28:36;;;;;;;19.47;16.77;;;23.40;99.90;;;;;;4993813;28;20492;-57
2023/06/29 09:31:08;;;;;;;19.00;17.00;;;23.30;99.90;;;;;;4995199;28;20484;-56
2023/06/29 09:33:38;;;;;;;19.10;17.20;;;23.30;99.90;;;;;;4992696;28;21055;-57
2023/06/29 09:36:07;;;;;;;20.90;18.80;;;23.30;99.90;;;;;;4997560;28;20562;-56
2023/06/29 09:38:37;;;;;;;20.57;18.43;;;23.30;99.90;;;;;;4993737;28;20468;-57
2023/06/29 09:41:06;;;;;;;22.07;17.50;;;23.20;99.90;;;;;;4994571;28;21027;-56
2023/06/29 09:43:35;;;;;;;24.23;19.03;;;23.10;99.90;;;;;;4992543;28;21051;-57
2023/06/29 09:46:08;;;;;;;20.20;17.57;;;23.20;99.90;;;;;;4995637;28;20472;-57
2023/06/29 09:48:45;;;;;;;20.10;18.00;;;23.20;99.90;;;;;;4992856;28;20473;-56
2023/06/29 09:51:20;;;;;;;20.00;17.30;;;23.20;99.90;;;;;;4996327;28;20579;-56
2023/06/29 09:53:49;;;;;;;19.70;17.27;;;23.20;99.90;;;;;;4993498;28;20501;-57
2023/06/29 09:56:17;;;;;;;24.27;19.30;;;23.30;99.90;;;;;;4996634;28;20477;-56
2023/06/29 09:58:46;;;;;;;23.47;19.73;;;23.40;99.90;;;;;;4991521;28;20917;-57
2023/06/29 10:01:16;;;;;;;21.90;19.50;;;23.40;99.90;;;;;;4993621;28;21005;-57
2023/06/29 10:03:46;;;;;;;20.87;18.87;;;23.40;99.90;;;;;;4995484;28;20485;-57
2023/06/29 10:06:18;;;;;;;22.53;19.47;;;23.50;99.90;;;;;;4995230;28;21328;-56
2023/06/29 10:08:51;;;;;;;20.67;18.43;;;23.60;99.90;;;;;;4994270;28;21009;-56
2023/06/29 10:11:21;;;;;;;24.00;20.00;;;23.60;99.90;;;;;;4993089;28;20594;-56
2023/06/29 10:13:51;;;;;;;21.00;18.80;;;23.70;99.90;;;;;;4991168;28;20512;-56
2023/06/29 10:16:22;;;;;;;21.60;19.50;;;23.80;99.90;;;;;;4994862;28;20468;-56
2023/06/29 10:19:01;;;;;;;21.90;18.83;;;23.80;99.90;;;;;;4992045;28;20555;-56
2023/06/29 10:21:29;;;;;;;19.70;17.70;;;23.90;99.90;;;;;;4993717;28;20492;-57
2023/06/29 10:23:57;;;;;;;19.30;17.30;;;23.90;99.90;;;;;;4991037;28;20502;-57
2023/06/29 10:26:26;;;;;;;21.80;18.40;;;23.90;99.90;;;;;;4992124;28;22003;-58
2023/06/29 10:28:54;;;;;;;19.33;17.33;;;24.00;99.90;;;;;;4996365;28;20575;-55
2023/06/29 10:31:32;;;;;;;19.83;17.17;;;24.10;99.90;;;;;;4993802;28;20608;-56
2023/06/29 10:34:06;;;;;;;21.70;18.63;;;24.10;99.90;;;;;;4993904;28;21235;-56
2023/06/29 10:36:49;;;;;;;18.23;16.43;;;24.10;99.90;;;;;;4991966;28;21040;-56
2023/06/29 10:39:39;;;;;;;20.23;17.63;;;24.10;99.90;;;;;;4995527;28;20519;-57
2023/06/29 10:42:13;;;;;;;19.90;17.20;;;24.00;99.90;;;;;;4993913;28;20592;-57
2023/06/29 10:44:41;;;;;;;19.47;17.30;;;23.80;99.90;;;;;;4995983;28;20478;-57
2023/06/29 10:47:27;;;;;;;18.27;16.37;;;23.70;99.90;;;;;;4994533;28;20504;-57
2023/06/29 10:50:18;;;;;;;17.50;15.73;;;23.60;99.90;;;;;;4994516;28;20488;-56
2023/06/29 10:52:49;;;;;;;18.17;16.27;;;23.50;99.90;;;;;;4994049;28;20491;-56
2023/06/29 10:55:18;;;;;;;20.20;17.53;;;23.40;99.90;;;;;;4994976;28;20530;-57
2023/06/29 10:57:47;;;;;;;20.07;16.40;;;23.40;99.90;;;;;;4997718;28;20494;-57
2023/06/29 11:00:16;;;;;;;17.63;15.83;;;23.30;99.90;;;;;;4995717;28;21060;-57
2023/06/29 11:02:44;;;;;;;17.40;14.67;;;23.30;99.90;;;;;;4995667;28;20484;-57
2023/06/29 11:05:14;;;;;;;18.40;16.43;;;23.30;99.90;;;;;;4997101;28;20559;-57
2023/06/29 11:07:45;;;;;;;17.70;16.00;;;23.30;99.90;;;;;;4997095;28;20474;-57
2023/06/29 11:10:13;;;;;;;20.40;16.73;;;23.20;99.90;;;;;;4994629;28;20523;-57
2023/06/29 11:12:42;;;;;;;17.90;16.00;;;23.20;99.90;;;;;;4994239;28;21686;-57
2023/06/29 11:15:13;;;;;;;17.67;15.67;;;23.10;99.90;;;;;;4997563;28;20576;-57
2023/06/29 11:18:03;;;;;;;15.77;14.17;;;23.10;99.90;;;;;;4997484;28;20499;-56
2023/06/29 11:20:31;;;;;;;14.73;13.23;;;23.20;99.90;;;;;;4998131;28;20483;-57
2023/06/29 11:23:01;;;;;;;17.53;15.70;;;23.20;99.90;;;;;;4994788;28;20968;-57
2023/06/29 11:25:30;;;;;;;16.53;14.63;;;23.20;99.90;;;;;;4996489;28;20534;-57
2023/06/29 11:27:59;;;;;;;18.97;16.27;;;23.20;99.90;;;;;;4997285;28;20548;-57
2023/06/29 11:30:27;;;;;;;17.47;15.77;;;23.20;99.90;;;;;;4998130;28;20546;-57
2023/06/29 11:32:55;;;;;;;17.00;15.20;;;23.10;99.90;;;;;;4994332;28;20515;-57
2023/06/29 11:35:24;;;;;;;16.80;15.10;;;23.10;99.90;;;;;;4996487;28;20526;-57
2023/06/29 11:38:00;;;;;;;16.20;14.53;;;23.00;99.90;;;;;;4998133;28;20473;-57
2023/06/29 11:40:30;;;;;;;17.00;15.10;;;23.00;99.90;;;;;;4993846;28;21008;-57
2023/06/29 11:42:58;;;;;;;19.47;15.90;;;23.00;99.90;;;;;;4994106;28;20622;-57
2023/06/29 11:45:26;;;;;;;17.10;15.23;;;23.00;99.90;;;;;;4996367;28;20500;-57
2023/06/29 11:47:56;;;;;;;18.77;14.63;;;22.90;99.90;;;;;;4995412;28;20965;-57
2023/06/29 11:50:25;;;;;;;16.87;14.23;;;23.00;99.90;;;;;;4993882;28;20604;-57
2023/06/29 11:52:53;;;;;;;16.80;14.57;;;22.90;99.90;;;;;;4995644;28;20492;-56
2023/06/29 11:55:21;;;;;;;17.30;15.53;;;22.90;99.90;;;;;;4990238;28;20476;-57
2023/06/29 11:57:54;;;;;;;16.67;14.90;;;22.90;99.90;;;;;;4994314;28;20471;-57
2023/06/29 12:00:30;;;;;;;16.23;14.53;;;23.00;99.90;;;;;;4995257;28;20552;-56
2023/06/29 12:03:07;;;;;;;17.63;16.03;;;22.90;99.90;;;;;;4995050;28;20497;-58
2023/06/29 12:05:40;;;;;;;20.10;16.43;;;22.80;99.90;;;;;;4999099;28;20500;-56
2023/06/29 12:08:09;;;;;;;18.80;16.00;;;22.80;99.90;;;;;;4995559;28;20512;-57
2023/06/29 12:10:39;;;;;;;15.70;14.10;;;22.70;99.90;;;;;;4995417;28;20500;-56
2023/06/29 12:13:11;;;;;;;18.83;15.00;;;22.70;99.90;;;;;;4997589;28;20576;-57
2023/06/29 12:15:44;;;;;;;18.40;16.40;;;22.60;99.90;;;;;;4996594;28;21045;-57
2023/06/29 12:18:32;;;;;;;16.90;15.20;;;22.60;99.90;;;;;;4991860;28;21251;-57
2023/06/29 12:21:04;;;;;;;15.40;14.10;;;22.60;99.90;;;;;;4995208;28;20436;-56
2023/06/29 12:23:33;;;;;;;16.83;15.00;;;22.70;99.90;;;;;;4993536;28;20483;-57
2023/06/29 12:26:01;;;;;;;15.83;14.33;;;22.70;99.90;;;;;;4989143;28;20486;-56
2023/06/29 12:28:30;;;;;;;19.40;16.67;;;22.70;99.90;;;;;;4995322;28;20473;-56
2023/06/29 12:30:58;;;;;;;19.70;17.90;;;22.70;99.90;;;;;;4995139;28;20571;-56
2023/06/29 12:33:26;;;;;;;20.17;18.17;;;22.60;99.90;;;;;;4993787;28;20492;-56
2023/06/29 12:35:54;;;;;;;21.27;19.27;;;22.50;99.90;;;;;;4993986;28;20560;-56
2023/06/29 12:38:22;;;;;;;22.00;19.80;;;22.40;99.90;;;;;;4993708;28;20469;-58